Terminal Aerodrome Forecast
Issued by NWS

Home | Current Version | Previous Version | Text Only | Print | Product List | Glossary On
Versions: 1 2 3 4 5 6 7 8 9 10 11 12 13 14 15 16
000
FTUS46 KLOX 250923 AAB
TAFSBP
TAF AMD
KSBP 250923Z 2509/2606 VRB05KT 4SM BR BKN003
      TEMPO 2509/2513 1/2SM FG VV001
     FM251300 VRB03KT 3SM BR OVC004
     FM251730 VRB03KT 6SM HZ SCT007
     FM252100 24007KT P6SM SKC
     FM260300 VRB05KT P6SM SKC=

USA.gov is the U.S. government's official web portal to all federal, state and local government web resources and services.